CPZ3 weather

Trenton / Mountain View Airport
Prince Edward County, Ontario, Canada

Public forecast

Using degrees Celsius for public forecast. Weather courtesy of forecast.io.

Closest aviation weather report (METAR) to Trenton / Mountain View Airport

Closest report is CFB Trenton, 8.7 nm (16.1 km) WNW. Retrieved 2020/01/20 02:00 UTC (28 minutes ago):

CYTR 200200Z 31006KT 15SM SKC M12/M16 A3016 RMK SLP220

Closest aviation forecast (TAF) to Trenton / Mountain View Airport

Closest forecast is CFB Trenton, 8.7 nm (16.1 km) WNW. Retrieved 2020-01-20 00:33 UTC (2 hours ago):

TAF CYTR 192330Z 2000/2024 32005KT P6SM SCT025 BKN070 TEMPO 2000/2002 BKN020 FM200200 33005KT P6SM FEW030 FM201400 32007KT P6SM FEW100 BECMG 2016/2018 28007KT RMK NXT FCST BY 200600Z